• Join FlightAware (Why Join?)
  • Login
  • US Flag 
06:44PM EDT


 

Airport Tracker/Info


-or-


 

Live Flight TrackerFlight Track Log ✈ RPA3321 ✈ 14-Jun-2014 ✈ KCLT - MBPV / PLS

Flight Track Log - Related Links

Times and Time Zones

All times are in EDT time to prevent confusion due to time zone crossing. See the RPA3321 flight status page for this flight to view local times or setup timezone preferences in your user account.

Time Position Orientation Groundspeed Altitude Reporting Facility
EDT Latitude Longitude Course Direction KTS MPH feet Rate Location/Type
08:27AM 35.2369 -80.9417 16° North 163 188 1,800  Level Atlanta Center
08:27AM 35.2617 -80.9331 16° North 176 203 2,300 1,140 Climbing Atlanta Center
08:28AM 35.3022 -80.8856 44° Northeast 251 289 3,600 1,680 Climbing Atlanta Center
08:29AM 35.2956 -80.7944 95° East 278 320 5,800 2,040 Climbing Atlanta Center
08:30AM 35.2869 -80.7006 96° East 299 344 7,800 1,980 Climbing Atlanta Center
08:31AM 35.2108 -80.6656 159° South 299 344 9,900 1,680 Climbing Atlanta Center
08:32AM 35.1228 -80.6539 174° South 301 346 11,300 1,500 Climbing Atlanta Center
08:33AM 35.0472 -80.7078 210° Southwest 298 343 12,900 1,440 Climbing Atlanta Center
08:34AM 34.9653 -80.7717 213° Southwest 316 364 14,200 1,200 Climbing Atlanta Center
08:35AM 34.8711 -80.8386 210° Southwest 336 387 15,400 1,380 Climbing Atlanta Center
08:37AM 34.6906 -80.8978 195° South 361 415 18,100 1,500 Climbing Jacksonville Center
08:38AM 34.5800 -80.8903 177° South 383 441 19,600 1,500 Climbing Jacksonville Center
08:39AM 34.4675 -80.9006 184° South 403 464 21,200 1,620 Climbing Jacksonville Center
08:40AM 34.3511 -80.9333 193° South 414 476 22,900 1,440 Climbing Jacksonville Center
08:41AM 34.2533 -80.9556 191° South 412 474 24,100 1,320 Climbing Jacksonville Center
08:42AM 34.1369 -80.9833 191° South 412 474 25,600 1,620 Climbing Jacksonville Center
08:43AM 34.0206 -81.0158 193° South 418 481 27,400 1,380 Climbing Jacksonville Center
08:44AM 33.8981 -81.0461 192° South 418 481 28,400 900 Climbing Jacksonville Center
08:45AM 33.7833 -81.0583 185° South 418 481 29,300 780 Climbing Jacksonville Center
08:46AM 33.6708 -81.0608 181° South 430 495 30,000 300 Climbing Jacksonville Center
08:47AM 33.5539 -81.0633 181° South 430 495 30,000  Level Jacksonville Center
08:48AM 33.4308 -81.0633 180° South 430 495 30,000  Level Jacksonville Center
08:49AM 33.3181 -81.0656 181° South 425 489 30,000  Level Jacksonville Center
08:50AM 33.2033 -81.0656 180° South 420 483 30,000  Level Jacksonville Center
08:51AM 33.0906 -81.0678 181° South 415 478 30,000  Level Jacksonville Center
08:52AM 32.9656 -81.0678 180° South 420 483 30,000  Level Jacksonville Center
08:53AM 32.8506 -81.0703 181° South 415 478 30,000  Level Jacksonville Center
08:54AM 32.7381 -81.0725 181° South 415 478 30,000  Level Jacksonville Center
08:55AM 32.6275 -81.0747 181° South 404 465 30,000  Level Jacksonville Center
08:56AM 32.5167 -81.0744 180° South 404 465 30,000  Level Jacksonville Center
08:57AM 32.4019 -81.0742 180° South 404 465 30,000  Level Jacksonville Center
08:58AM 32.2914 -81.0764 181° South 403 464 30,000  Level Jacksonville Center
08:59AM 32.1806 -81.0786 181° South 397 457 30,000  Level Jacksonville Center
09:00AM 32.0722 -81.0783 180° South 397 457 30,000  Level Jacksonville Center
09:01AM 31.9617 -81.0831 182° South 397 457 30,000  Level Jacksonville Center
09:02AM 31.8614 -81.0825 180° South 400 460 30,000  Level Jacksonville Center
09:03AM 31.7528 -81.0844 181° South 400 460 30,000  Level Jacksonville Center
09:04AM 31.6339 -81.0869 181° South 400 460 30,000  Level Jacksonville Center
09:05AM 31.5314 -81.0864 180° South 406 467 30,000  Level Jacksonville Center
09:06AM 31.4125 -81.0889 181° South 400 460 30,000  Level Jacksonville Center
09:07AM 31.3103 -81.0908 181° South 400 460 30,000  Level Jacksonville Center
09:08AM 31.1997 -81.0928 181° South 400 460 30,000  Level Jacksonville Center
09:09AM 31.0869 -81.0950 181° South 400 460 30,000  Level Jacksonville Center
09:10AM 30.9758 -81.0656 167° South 400 460 30,000  Level Jacksonville Center
09:11AM 30.8667 -81.0267 163° South 405 466 30,000  Level Jacksonville Center
09:12AM 30.7597 -80.9900 164° South 410 472 30,000  Level Jacksonville Center
09:13AM 30.6506 -80.9511 163° South 410 472 30,000  Level Jacksonville Center
09:14AM 30.5392 -80.9125 163° South 410 472 30,000  Level Jacksonville Center
09:15AM 30.4300 -80.8736 163° South 410 472 30,000  Level Jacksonville Center
09:16AM 30.3211 -80.8400 165° South 410 472 30,000  Level Jacksonville Center
09:17AM 30.2097 -80.8014 163° South 410 472 30,000  Level Jacksonville Center
09:18AM 30.1006 -80.7653 164° South 410 472 30,000  Level Jacksonville Center
09:19AM 29.9914 -80.7269 163° South 416 479 30,000  Level Jacksonville Center
09:20AM 29.8842 -80.6886 163° South 416 479 30,000  Level Jacksonville Center
09:21AM 29.7750 -80.6506 163° South 416 479 30,000  Level Jacksonville Center
09:22AM 29.6658 -80.6172 165° South 411 473 30,000  Level Jacksonville Center
09:23AM 29.5567 -80.5792 163° South 417 480 30,000  Level Jacksonville Center
09:24AM 29.4517 -80.5411 162° South 406 467 30,000  Level Jacksonville Center
09:25AM 29.3403 -80.5056 164° South 405 466 30,000  Level Jacksonville Center
09:26AM 29.2331 -80.4678 163° South 405 466 30,000  Level Jacksonville Center
09:27AM 29.0764 -80.4169 164° South 409 471 30,000  Level Miami Center
09:28AM 28.9664 -80.3778 163° South 411 473 30,000  Level Miami Center
09:29AM 28.8400 -80.3367 164° South 409 471 30,000  Level Miami Center
09:30AM 28.7347 -80.3008 163° South 409 471 30,000  Level Miami Center
09:31AM 28.6208 -80.2628 164° South 409 471 30,000  Level Miami Center
09:32AM 28.5053 -80.2242 164° South 409 471 30,000  Level Miami Center
09:33AM 28.3914 -80.1869 164° South 409 471 30,000  Level Miami Center
09:35AM 28.2756 -80.1489 164° South 410 472 30,000  Level Miami Center
09:36AM 28.1692 -80.1139 164° South 410 472 30,000  Level Miami Center
09:37AM 28.0547 -80.0758 164° South 410 472 30,000  Level Miami Center
09:38AM 27.9400 -80.0383 164° South 410 472 30,000  Level Miami Center
09:39AM 27.8428 -80.0064 164° South 410 472 30,000  Level Miami Center
09:40AM 27.7100 -79.9631 164° South 411 473 30,000  Level Miami Center
09:41AM 27.5992 -79.9269 164° South 412 474 30,000  Level Miami Center
09:42AM 27.4883 -79.8906 164° South 412 474 30,000  Level Miami Center
09:43AM 27.3714 -79.8533 164° South 412 474 30,000  Level Miami Center
09:44AM 27.2606 -79.8042 158° South 411 473 30,000  Level Miami Center
09:45AM 27.1872 -79.6969 128° Southeast 414 476 30,000  Level Miami Center
09:46AM 27.1175 -79.5869 125° Southeast 413 475 30,000  Level Miami Center
09:47AM 27.0542 -79.4853 125° Southeast 413 475 30,000  Level Miami Center
09:48AM 26.9839 -79.3756 126° Southeast 413 475 30,000  Level Miami Center
09:49AM 26.9158 -79.2672 125° Southeast 412 474 30,000 240 Level Miami Center
09:50AM 26.8475 -79.1592 125° Southeast 412 474 30,500 480 Climbing Miami Center
09:51AM 26.7814 -79.0542 125° Southeast 412 474 31,000 240 Climbing Miami Center
09:52AM 26.7142 -78.9489 126° Southeast 413 475 31,000  Level Miami Center
09:53AM 26.6478 -78.8433 125° Southeast 413 475 31,000  Level Miami Center
09:54AM 26.5811 -78.7378 125° Southeast 413 475 31,000  Level Miami Center
09:55AM 26.5078 -78.6358 129° Southeast 416 479 31,000  Level Miami Center
09:56AM 26.4186 -78.5189 130° Southeast 416 479 31,000  Level Miami Center
09:57AM 26.3444 -78.4211 130° Southeast 416 479 31,000  Level Miami Center
09:58AM 26.2697 -78.3228 130° Southeast 415 478 31,000  Level Miami Center
09:59AM 26.1950 -78.2247 130° Southeast 414 476 31,000  Level Miami Center
10:00AM 26.1217 -78.1269 130° Southeast 413 475 31,000  Level Miami Center
10:01AM 26.0436 -78.0283 131° Southeast 414 476 31,000  Level Miami Center
10:02AM 25.9711 -77.9308 130° Southeast 415 478 31,000  Level Miami Center
10:03AM 25.8817 -77.8147 131° Southeast 413 475 31,000  Level Miami Center
10:04AM 25.8075 -77.7175 130° Southeast 413 475 31,000  Level Miami Center
10:05AM 25.7325 -77.6211 131° Southeast 413 475 31,000  Level Miami Center
10:07AM 25.6575 -77.5236 130° Southeast 414 476 31,000  Level Miami Center
10:08AM 25.5803 -77.4267 131° Southeast 419 482 31,000  Level Miami Center
10:09AM 25.4911 -77.3086 130° Southeast 419 482 31,000  Level Miami Center
10:10AM 25.4169 -77.2064 129° Southeast 420 483 31,000  Level Miami Center
10:11AM 25.3578 -77.1014 122° Southeast 416 479 31,000  Level Miami Center
10:12AM 25.2939 -76.9931 123° Southeast 416 479 31,000  Level Miami Center
10:13AM 25.2339 -76.8847 121° Southeast 416 479 31,000  Level Miami Center
10:14AM 25.1725 -76.7750 122° Southeast 416 479 31,000  Level Miami Center
10:15AM 25.1100 -76.6669 123° Southeast 416 479 31,000  Level Miami Center
10:16AM 25.0372 -76.5361 122° Southeast 416 479 31,000  Level Miami Center
10:17AM 24.9756 -76.4261 122° Southeast 416 479 31,000  Level Miami Center
10:18AM 24.9125 -76.3181 123° Southeast 416 479 31,000  Level Miami Center
10:19AM 24.8508 -76.2056 121° Southeast 422 486 31,000  Level Miami Center
10:20AM 24.7872 -76.0953 122° Southeast 422 486 31,000  Level Miami Center
10:21AM 24.7228 -75.9881 123° Southeast 422 486 31,000  Level Miami Center
10:22AM 24.6592 -75.8797 123° Southeast 422 486 31,000  Level Miami Center
10:23AM 24.5836 -75.7469 122° Southeast 422 486 31,000  Level Miami Center
10:24AM 24.5217 -75.6386 122° Southeast 422 486 31,000  Level Miami Center
10:25AM 24.4581 -75.5308 123° Southeast 422 486 31,000  Level Miami Center
10:26AM 24.3950 -75.4225 123° Southeast 421 484 31,000  Level Miami Center
10:27AM 24.3322 -75.3133 122° Southeast 421 484 31,000  Level Miami Center
10:28AM 24.2689 -75.2056 123° Southeast 421 484 31,000  Level Miami Center
10:29AM 24.2061 -75.0981 123° Southeast 421 484 31,000  Level Miami Center
10:30AM 24.1300 -74.9683 123° Southeast 421 484 31,000  Level Miami Center
10:31AM 24.0672 -74.8617 123° Southeast 421 484 31,000  Level Miami Center
10:32AM 24.0053 -74.7564 123° Southeast 417 480 31,000  Level Miami Center
10:33AM 23.9408 -74.6494 123° Southeast 416 479 31,000  Level Miami Center
10:34AM 23.8769 -74.5444 124° Southeast 415 478 31,000  Level Miami Center
10:35AM 23.8161 -74.4403 123° Southeast 410 472 31,000  Level Miami Center
10:37AM 23.7414 -74.3161 123° Southeast 409 471 31,000  Level Miami Center
10:38AM 23.6769 -74.2117 124° Southeast 409 471 31,000  Level Miami Center
10:39AM 23.6156 -74.1081 123° Southeast 409 471 31,000  Level Miami Center
10:40AM 23.5544 -74.0042 123° Southeast 409 471 31,000  Level Miami Center
10:41AM 23.4911 -73.9022 124° Southeast 408 470 31,000  Level Miami Center
10:42AM 23.4303 -73.7983 123° Southeast 408 470 31,000  Level Miami Center
10:43AM 23.3575 -73.6750 123° Southeast 406 467 31,000  Level Miami Center
10:44AM 23.2939 -73.5736 124° Southeast 406 467 31,000 -720 Level Miami Center
10:45AM 23.2319 -73.4719 124° Southeast 405 466 29,500 -1,680 Descending Miami Center
10:46AM 23.1708 -73.3686 123° Southeast 407 468 27,500 -2,220 Descending Miami Center
10:47AM 23.1033 -73.2558 123° Southeast 436 502 25,000 -2,340 Descending Miami Center
10:48AM 23.0353 -73.1492 125° Southeast 433 498 22,700 -2,340 Descending Miami Center
10:49AM 22.9639 -73.0292 123° Southeast 418 481 20,200 -2,220 Descending Miami Center
10:50AM 22.9017 -72.9314 125° Southeast 401 461 18,100 -2,100 Descending Miami Center
10:51AM 22.8436 -72.8342 123° Southeast 388 447 15,900 -1,980 Descending Miami Center
10:52AM 22.7872 -72.7433 124° Southeast 369 425 14,000 -1,980 Descending Miami Center
10:53AM 22.7236 -72.6356 123° Southeast 360 414 11,800 -1,920 Descending Miami Center
10:54AM 22.6756 -72.5600 125° Southeast 328 377 10,100 -1,560 Descending Miami Center
10:55AM 22.6322 -72.4878 123° Southeast 302 348 8,600 -1,560 Descending Miami Center
10:56AM 22.5878 -72.4178 125° Southeast 291 335 6,900 -1,620 Descending Miami Center
10:58AM 22.4561 -72.3937 170° South  Level FlightAware Approximate
11:05AM 21.7667 -72.2667 169° South  Level FlightAware Approximate
11:06AM 21.7736 -72.2659 169° South  Level Estimated
11:07AM 21.7667 -72.2667 169° South  Level FlightAware Approximate
11:08AM 21.7736 -72.2659 169° South  Level Estimated
11:09AM 21.7667 -72.2667 169° South  Level FlightAware Approximate
11:10AM 21.7736 -72.2659 169° South  Level Estimated
11:11AM 21.7667 -72.2667 169° South  Level FlightAware Approximate
11:12AM 21.7736 -72.2659 169° South  Level Estimated
11:13AM 21.7667 -72.2667 169° South  Level FlightAware Approximate
11:14AM 21.7736 -72.2659 169° South  Level Estimated
11:15AM 21.7667 -72.2667 169° South  Level FlightAware Approximate
11:16AM 21.7736 -72.2659 169° South  Level Estimated
11:17AM 21.7667 -72.2667 169° South  Level FlightAware Approximate